createdAt,value
2019-03-30T00:00:38.914Z,66.11
2019-03-30T00:03:08.580Z,65.73
2019-03-30T00:05:38.247Z,65.49
2019-03-30T00:08:07.938Z,65.50
2019-03-30T00:10:37.626Z,65.67
2019-03-30T00:13:07.330Z,65.68
2019-03-30T00:15:36.991Z,65.56
2019-03-30T00:18:06.677Z,65.47
2019-03-30T00:20:36.385Z,65.72
2019-03-30T00:23:06.060Z,65.73
2019-03-30T00:25:35.791Z,65.75
2019-03-30T00:28:05.457Z,65.70
2019-03-30T00:30:36.698Z,65.74
2019-03-30T00:33:06.368Z,65.85
2019-03-30T00:35:36.012Z,65.86
2019-03-30T00:38:05.674Z,65.80
2019-03-30T00:40:35.320Z,65.84
2019-03-30T00:43:04.996Z,65.84
2019-03-30T00:45:34.659Z,65.85
2019-03-30T00:48:04.346Z,65.96
2019-03-30T00:50:35.546Z,66.01
2019-03-30T00:53:05.201Z,66.10
2019-03-30T00:55:34.931Z,66.10
2019-03-30T00:58:04.617Z,66.06
2019-03-30T01:00:34.283Z,66.17
2019-03-30T01:03:03.967Z,66.14
2019-03-30T01:05:33.626Z,66.24
2019-03-30T01:08:03.321Z,66.28
2019-03-30T01:10:32.965Z,66.33
2019-03-30T01:13:02.704Z,66.48
2019-03-30T01:15:32.342Z,66.58
2019-03-30T01:18:02.022Z,66.69
2019-03-30T01:20:31.695Z,66.64
2019-03-30T01:23:01.621Z,66.57
2019-03-30T01:25:31.255Z,66.53
2019-03-30T01:28:00.925Z,66.42
2019-03-30T01:30:30.563Z,66.52
2019-03-30T01:33:00.329Z,66.55
2019-03-30T01:35:29.996Z,66.54
2019-03-30T01:37:59.657Z,66.60
2019-03-30T01:40:29.333Z,66.58
2019-03-30T01:42:58.999Z,66.59
2019-03-30T01:45:29.977Z,66.62
2019-03-30T01:47:59.633Z,66.77
2019-03-30T01:50:29.301Z,66.84
2019-03-30T01:52:58.997Z,66.86
2019-03-30T01:55:28.635Z,66.86
2019-03-30T01:57:58.313Z,66.97
2019-03-30T02:00:27.967Z,67.06
2019-03-30T02:02:57.643Z,66.96
2019-03-30T02:05:27.307Z,67.28
2019-03-30T02:07:56.939Z,67.40
2019-03-30T02:10:40.964Z,67.27
2019-03-30T02:13:10.674Z,67.15
2019-03-30T02:15:40.358Z,67.22
2019-03-30T02:18:10.015Z,67.18
2019-03-30T02:20:41.286Z,67.35
2019-03-30T02:23:11.428Z,67.38
2019-03-30T02:25:41.120Z,67.09
2019-03-30T02:28:11.074Z,67.18
2019-03-30T02:30:40.862Z,67.29
2019-03-30T02:33:10.493Z,67.39
2019-03-30T02:35:40.150Z,67.46
2019-03-30T02:38:09.775Z,67.59
2019-03-30T02:40:39.501Z,67.65
2019-03-30T02:43:09.155Z,67.67
2019-03-30T02:45:38.792Z,67.57
2019-03-30T02:48:08.449Z,67.62
2019-03-30T02:50:49.159Z,67.59
2019-03-30T02:53:09.497Z,67.55
2019-03-30T02:55:39.162Z,67.69
2019-03-30T02:58:08.794Z,67.83
2019-03-30T03:00:38.528Z,67.83
2019-03-30T03:03:08.209Z,67.69
2019-03-30T03:05:37.878Z,67.65
2019-03-30T03:08:07.519Z,67.88
2019-03-30T03:10:37.225Z,67.94
2019-03-30T03:13:06.882Z,67.98
2019-03-30T03:15:36.532Z,68.00
2019-03-30T03:18:06.165Z,68.13
2019-03-30T03:20:37.467Z,68.07
2019-03-30T03:23:07.122Z,68.20
2019-03-30T03:25:36.861Z,68.12
2019-03-30T03:28:06.508Z,68.29
2019-03-30T03:30:36.177Z,68.25
2019-03-30T03:33:05.828Z,68.24
2019-03-30T03:35:38.296Z,68.25
2019-03-30T03:38:07.929Z,68.53
2019-03-30T03:40:37.696Z,68.64
2019-03-30T03:43:07.420Z,69.23
2019-03-30T03:45:37.060Z,69.45
2019-03-30T03:48:06.713Z,69.38
2019-03-30T03:50:46.738Z,69.17
2019-03-30T03:53:37.397Z,68.99
2019-03-30T03:56:27.305Z,68.84
2019-03-30T03:58:58.918Z,68.70
2019-03-30T04:01:30.003Z,68.64
2019-03-30T04:04:02.948Z,68.73
2019-03-30T04:06:34.136Z,68.95
2019-03-30T04:09:24.596Z,68.92
2019-03-30T04:12:14.474Z,68.78
2019-03-30T04:14:49.393Z,68.89
2019-03-30T04:17:19.048Z,68.90
2019-03-30T04:19:48.726Z,68.90
2019-03-30T04:22:18.405Z,68.85
2019-03-30T04:24:48.051Z,68.83
2019-03-30T04:27:17.721Z,69.19
2019-03-30T04:29:47.371Z,69.46
2019-03-30T04:32:17.064Z,69.79
2019-03-30T04:34:46.701Z,69.89
2019-03-30T04:37:16.395Z,69.70
2019-03-30T04:39:46.090Z,69.78
2019-03-30T04:42:15.709Z,69.61
2019-03-30T04:44:45.341Z,69.55
2019-03-30T04:47:14.992Z,69.58
2019-03-30T04:49:44.662Z,69.49
2019-03-30T04:52:14.316Z,69.48
2019-03-30T04:54:44.034Z,69.31
2019-03-30T04:57:13.698Z,69.34
2019-03-30T04:59:43.352Z,69.30
2019-03-30T05:02:13.009Z,69.73
2019-03-30T05:04:42.712Z,69.87
2019-03-30T05:07:12.391Z,69.73
2019-03-30T05:09:42.092Z,69.66
2019-03-30T05:12:11.747Z,69.71
2019-03-30T05:14:41.411Z,69.53
2019-03-30T05:17:11.066Z,69.50
2019-03-30T05:19:40.834Z,69.66
2019-03-30T05:22:12.962Z,69.63
2019-03-30T05:24:41.870Z,69.70
2019-03-30T05:27:11.524Z,69.56
2019-03-30T05:29:41.160Z,69.59
2019-03-30T05:32:10.810Z,69.63
2019-03-30T05:34:40.511Z,69.78
2019-03-30T05:37:10.153Z,69.69
2019-03-30T05:39:39.822Z,69.66
2019-03-30T05:42:09.494Z,69.71
2019-03-30T05:44:39.159Z,69.61
2019-03-30T05:47:08.853Z,69.60
2019-03-30T05:49:38.537Z,69.69
2019-03-30T05:52:08.197Z,69.42
2019-03-30T05:54:37.851Z,69.20
2019-03-30T05:57:07.531Z,69.35
2019-03-30T05:59:37.183Z,69.25
2019-03-30T06:02:06.851Z,69.26
2019-03-30T06:04:36.500Z,69.50
2019-03-30T06:07:06.220Z,69.65
2019-03-30T06:09:35.820Z,69.97
2019-03-30T06:12:05.513Z,69.91
2019-03-30T06:14:35.158Z,69.79
2019-03-30T06:17:04.824Z,69.41
2019-03-30T06:19:34.480Z,69.31
2019-03-30T06:22:04.344Z,69.11
2019-03-30T06:24:34.030Z,68.95
2019-03-30T06:27:03.708Z,69.10
2019-03-30T06:29:33.334Z,68.88
2019-03-30T06:32:03.007Z,68.75
2019-03-30T06:34:32.803Z,68.87
2019-03-30T06:37:02.495Z,69.65
2019-03-30T06:39:32.186Z,70.82
2019-03-30T06:42:01.986Z,71.25
2019-03-30T06:44:31.688Z,71.56
2019-03-30T06:47:01.355Z,71.14
2019-03-30T06:49:31.013Z,70.61
2019-03-30T06:52:00.677Z,69.89
2019-03-30T06:54:30.383Z,69.53
2019-03-30T06:57:00.061Z,68.10
2019-03-30T06:59:29.751Z,63.64
2019-03-30T07:01:59.456Z,55.21
2019-03-30T07:04:29.217Z,47.01
2019-03-30T07:06:59.192Z,41.32
2019-03-30T07:09:31.960Z,36.90
2019-03-30T07:12:03.087Z,33.63
2019-03-30T07:14:35.329Z,30.73
2019-03-30T07:17:06.797Z,29.15
2019-03-30T07:19:39.435Z,27.42
2019-03-30T07:22:09.137Z,26.27
2019-03-30T07:24:38.814Z,25.24
2019-03-30T07:27:08.489Z,23.93
2019-03-30T07:29:38.171Z,22.90
2019-03-30T07:32:07.899Z,22.00
2019-03-30T07:34:37.600Z,21.06
2019-03-30T07:37:07.282Z,20.37
2019-03-30T07:39:36.970Z,19.98
2019-03-30T07:42:06.683Z,19.73
2019-03-30T07:44:36.426Z,18.87
2019-03-30T07:47:06.111Z,18.14
2019-03-30T07:49:35.816Z,17.58
2019-03-30T07:52:05.518Z,18.19
2019-03-30T07:54:35.224Z,17.74
2019-03-30T07:57:16.391Z,17.63
2019-03-30T07:59:36.328Z,17.19
2019-03-30T08:02:06.045Z,16.86
2019-03-30T08:04:35.748Z,16.68
2019-03-30T08:07:05.460Z,16.50
2019-03-30T08:09:37.197Z,16.57
2019-03-30T08:12:06.579Z,17.13
2019-03-30T08:14:36.329Z,16.90
2019-03-30T08:17:06.062Z,16.46
2019-03-30T08:19:35.757Z,16.30
2019-03-30T08:22:05.435Z,16.02
2019-03-30T08:24:35.190Z,16.20
2019-03-30T08:27:05.031Z,15.85
2019-03-30T08:29:37.570Z,16.16
2019-03-30T08:32:07.451Z,16.19
2019-03-30T08:34:37.307Z,16.64
2019-03-30T08:37:07.155Z,16.85
2019-03-30T08:39:37.060Z,16.83
2019-03-30T08:42:06.887Z,17.03
2019-03-30T08:44:36.822Z,16.88
2019-03-30T08:47:06.740Z,16.56
2019-03-30T08:49:36.668Z,17.55
2019-03-30T08:52:06.599Z,18.33
2019-03-30T08:54:36.400Z,18.97
2019-03-30T08:57:06.252Z,19.58
2019-03-30T08:59:36.082Z,19.91
2019-03-30T09:02:05.912Z,20.93
2019-03-30T09:04:35.806Z,21.41
2019-03-30T09:07:06.136Z,21.26
2019-03-30T09:09:35.958Z,22.36
2019-03-30T09:12:05.642Z,22.36
2019-03-30T09:14:35.355Z,22.24
2019-03-30T09:17:05.106Z,21.84
2019-03-30T09:19:34.789Z,21.84
2019-03-30T09:22:04.854Z,21.97
2019-03-30T09:24:34.705Z,21.97
2019-03-30T09:27:04.590Z,21.83
2019-03-30T09:29:34.421Z,22.62
2019-03-30T09:32:14.341Z,23.19
2019-03-30T09:34:35.796Z,24.43
2019-03-30T09:37:05.559Z,24.61
2019-03-30T09:39:35.362Z,24.13
2019-03-30T09:42:05.135Z,25.82
2019-03-30T09:44:34.924Z,26.11
2019-03-30T09:47:04.643Z,25.88
2019-03-30T09:49:34.459Z,25.37
2019-03-30T09:52:04.220Z,25.53
2019-03-30T09:54:34.056Z,25.59
2019-03-30T09:57:03.832Z,26.29
2019-03-30T09:59:33.647Z,27.21
2019-03-30T10:02:03.435Z,27.83
2019-03-30T10:04:33.254Z,27.84
2019-03-30T10:07:03.058Z,28.65
2019-03-30T10:09:32.860Z,28.48
2019-03-30T10:12:02.974Z,27.85
2019-03-30T10:14:32.808Z,29.25
2019-03-30T10:17:02.614Z,29.29
2019-03-30T10:19:32.451Z,29.67
2019-03-30T10:22:02.350Z,29.79
2019-03-30T10:24:38.357Z,29.88
2019-03-30T10:27:03.701Z,29.56
2019-03-30T10:29:33.457Z,29.90
2019-03-30T10:32:03.259Z,29.47
2019-03-30T10:34:32.997Z,29.26
2019-03-30T10:37:02.781Z,29.58
2019-03-30T10:39:32.546Z,29.90
2019-03-30T10:42:02.277Z,30.02
2019-03-30T10:44:32.061Z,30.04
2019-03-30T10:47:01.916Z,30.12
2019-03-30T10:49:31.711Z,29.79
2019-03-30T10:52:01.475Z,29.94
2019-03-30T10:54:31.326Z,29.08
2019-03-30T10:57:01.153Z,29.78
2019-03-30T10:59:30.937Z,29.39
2019-03-30T11:02:00.691Z,29.45
2019-03-30T11:04:32.445Z,29.22
2019-03-30T11:07:02.810Z,29.31
2019-03-30T11:09:32.600Z,30.22
2019-03-30T11:12:05.606Z,28.66
2019-03-30T11:14:35.392Z,28.89
2019-03-30T11:17:05.172Z,29.04
2019-03-30T11:19:34.929Z,27.73
2019-03-30T11:24:33.498Z,28.16
2019-03-30T11:27:03.296Z,28.52
2019-03-30T11:29:33.099Z,28.39
2019-03-30T11:32:02.899Z,27.93
2019-03-30T11:34:32.653Z,29.00
2019-03-30T11:37:02.545Z,28.34
2019-03-30T11:39:32.397Z,28.01
2019-03-30T11:42:04.436Z,27.98
2019-03-30T11:44:34.327Z,28.38
2019-03-30T11:47:04.043Z,27.62
2019-03-30T11:49:33.757Z,28.12
2019-03-30T11:52:03.594Z,28.99
2019-03-30T11:54:33.639Z,28.32
2019-03-30T11:57:03.785Z,28.27
2019-03-30T11:59:33.844Z,27.78
2019-03-30T12:02:07.587Z,28.69
2019-03-30T12:04:37.294Z,29.05
2019-03-30T12:07:07.089Z,29.58
2019-03-30T12:09:36.973Z,30.08
2019-03-30T12:12:06.938Z,30.82
2019-03-30T12:14:36.736Z,30.59
2019-03-30T12:17:06.570Z,30.89
2019-03-30T12:19:36.428Z,29.90
2019-03-30T12:22:06.222Z,28.29
2019-03-30T12:24:36.082Z,28.40
2019-03-30T12:27:05.812Z,26.83
2019-03-30T12:29:35.576Z,24.72
2019-03-30T12:32:05.398Z,25.10
2019-03-30T12:34:35.136Z,26.96
2019-03-30T12:37:04.895Z,25.56
2019-03-30T12:39:35.961Z,26.20
2019-03-30T12:42:05.750Z,27.02
2019-03-30T12:44:35.542Z,26.89
2019-03-30T12:47:05.307Z,26.52
2019-03-30T12:49:35.223Z,26.58
2019-03-30T12:52:05.010Z,27.29
2019-03-30T12:54:35.122Z,27.46
2019-03-30T12:57:06.457Z,28.38
2019-03-30T12:59:36.386Z,28.61
2019-03-30T13:02:11.193Z,28.65
2019-03-30T13:04:41.145Z,28.77
2019-03-30T13:07:10.829Z,27.44
2019-03-30T13:09:40.849Z,28.72
2019-03-30T13:12:10.718Z,28.42
2019-03-30T13:14:43.379Z,26.73
2019-03-30T13:17:13.182Z,26.70
2019-03-30T13:19:42.975Z,26.95
2019-03-30T13:22:12.968Z,26.43
2019-03-30T13:24:42.789Z,26.70
2019-03-30T13:27:13.082Z,26.20
2019-03-30T13:29:45.535Z,26.25
2019-03-30T13:32:15.280Z,26.61
2019-03-30T13:34:45.118Z,26.61
2019-03-30T13:37:20.024Z,27.33
2019-03-30T13:39:49.831Z,27.51
2019-03-30T13:42:19.626Z,28.27
2019-03-30T13:45:10.387Z,28.95
2019-03-30T13:47:42.253Z,29.19
2019-03-30T13:50:12.123Z,28.45
2019-03-30T13:52:42.201Z,29.36
2019-03-30T13:55:12.112Z,29.32
2019-03-30T13:57:41.934Z,29.04
2019-03-30T14:00:12.045Z,27.40
2019-03-30T14:02:44.051Z,27.24
2019-03-30T14:05:24.621Z,28.40
2019-03-30T14:07:57.850Z,28.82
2019-03-30T14:10:27.765Z,28.72
2019-03-30T14:12:57.565Z,28.45
2019-03-30T14:15:27.562Z,28.79
2019-03-30T14:17:58.455Z,28.72
2019-03-30T14:20:30.875Z,28.86
2019-03-30T14:23:00.775Z,27.24
2019-03-30T14:25:30.615Z,27.36
2019-03-30T14:28:00.301Z,28.10
2019-03-30T14:30:29.965Z,28.20
2019-03-30T14:32:59.670Z,28.92
2019-03-30T14:35:29.330Z,28.29
2019-03-30T14:37:59.020Z,28.98
2019-03-30T14:40:28.693Z,28.60
2019-03-30T14:42:58.339Z,28.85
2019-03-30T14:45:28.031Z,28.05
2019-03-30T14:47:58.170Z,28.59
2019-03-30T14:50:28.059Z,29.03
2019-03-30T14:52:57.727Z,28.69
2019-03-30T14:55:27.411Z,29.54
2019-03-30T14:57:57.090Z,28.45
2019-03-30T15:00:26.924Z,29.30
2019-03-30T15:02:56.754Z,29.10
2019-03-30T15:05:26.515Z,29.34
2019-03-30T15:07:56.184Z,28.98
2019-03-30T15:10:25.864Z,28.38
2019-03-30T15:12:55.515Z,29.15
2019-03-30T15:15:25.244Z,27.94
2019-03-30T15:17:54.943Z,28.51
2019-03-30T15:20:24.632Z,27.41
2019-03-30T15:22:54.309Z,28.69
2019-03-30T15:25:24.085Z,28.93
2019-03-30T15:27:53.758Z,28.11
2019-03-30T15:30:23.451Z,28.60
2019-03-30T15:32:53.153Z,28.25
2019-03-30T15:35:22.810Z,27.79
2019-03-30T15:37:52.498Z,28.43
2019-03-30T15:40:22.354Z,27.95
2019-03-30T15:42:52.089Z,28.43
2019-03-30T15:45:21.857Z,28.30
2019-03-30T15:47:51.534Z,28.39
2019-03-30T15:50:21.287Z,29.18
2019-03-30T15:52:50.971Z,29.06
2019-03-30T15:55:20.756Z,29.39
2019-03-30T15:57:50.392Z,30.09
2019-03-30T16:00:20.263Z,29.76
2019-03-30T16:02:50.891Z,29.09
2019-03-30T16:05:20.593Z,28.52
2019-03-30T16:07:50.307Z,29.07
2019-03-30T16:10:19.999Z,29.74
2019-03-30T16:12:49.734Z,29.06
2019-03-30T16:15:19.467Z,30.19
2019-03-30T16:17:49.139Z,30.48
2019-03-30T16:20:18.914Z,30.29
2019-03-30T16:22:48.601Z,30.83
2019-03-30T16:25:18.306Z,30.25
2019-03-30T16:27:48.100Z,31.24
2019-03-30T16:30:18.505Z,30.98
2019-03-30T16:32:48.172Z,30.88
2019-03-30T16:35:17.852Z,30.88
2019-03-30T16:37:47.605Z,31.98
2019-03-30T16:40:17.332Z,31.65
2019-03-30T16:42:47.062Z,32.09
2019-03-30T16:45:16.960Z,31.63
2019-03-30T16:47:46.672Z,32.33
2019-03-30T16:50:17.506Z,32.35
2019-03-30T16:52:47.248Z,32.74
2019-03-30T16:55:16.987Z,32.98
2019-03-30T16:57:46.705Z,33.02
2019-03-30T17:00:17.071Z,33.15
2019-03-30T17:02:46.767Z,33.03
2019-03-30T17:05:16.549Z,33.08
2019-03-30T17:07:46.237Z,33.32
2019-03-30T17:10:16.031Z,33.30
2019-03-30T17:12:45.755Z,33.27
2019-03-30T17:15:15.463Z,33.33
2019-03-30T17:17:45.202Z,33.50
2019-03-30T17:20:14.931Z,33.63
2019-03-30T17:22:44.659Z,34.02
2019-03-30T17:25:14.562Z,33.47
2019-03-30T17:27:57.603Z,33.68
2019-03-30T17:30:16.362Z,34.06
2019-03-30T17:32:46.116Z,34.44
2019-03-30T17:35:15.905Z,34.91
2019-03-30T17:37:45.614Z,35.35
2019-03-30T17:40:15.422Z,36.40
2019-03-30T17:42:45.260Z,37.82
2019-03-30T17:45:15.276Z,39.21
2019-03-30T17:47:45.050Z,40.03
2019-03-30T17:50:14.968Z,40.36
2019-03-30T17:52:44.723Z,40.73
2019-03-30T17:55:14.429Z,41.61
2019-03-30T17:57:44.141Z,42.17
2019-03-30T18:00:16.104Z,42.45
2019-03-30T18:02:45.778Z,42.73
2019-03-30T18:05:15.524Z,42.95
2019-03-30T18:07:45.305Z,43.11
2019-03-30T18:10:15.512Z,43.41
2019-03-30T18:12:45.279Z,43.63
2019-03-30T18:15:15.181Z,43.73
2019-03-30T18:17:44.897Z,43.65
2019-03-30T18:20:16.112Z,43.43
2019-03-30T18:22:45.825Z,43.07
2019-03-30T18:25:15.654Z,43.04
2019-03-30T18:27:45.368Z,43.27
2019-03-30T18:30:15.185Z,43.36
2019-03-30T18:32:44.979Z,43.38
2019-03-30T18:35:14.687Z,43.31
2019-03-30T18:37:44.468Z,43.42
2019-03-30T18:40:27.001Z,43.80
2019-03-30T18:42:56.871Z,43.90
2019-03-30T18:45:27.929Z,44.16
2019-03-30T18:48:10.667Z,44.18
2019-03-30T18:50:41.365Z,44.17
2019-03-30T18:53:11.222Z,44.60
2019-03-30T18:55:40.928Z,45.25
2019-03-30T18:58:10.656Z,45.98
2019-03-30T19:00:40.308Z,46.38
2019-03-30T19:03:10.053Z,46.61
2019-03-30T19:05:39.740Z,46.33
2019-03-30T19:08:09.922Z,46.19
2019-03-30T19:10:39.750Z,46.24
2019-03-30T19:13:09.438Z,46.27
2019-03-30T19:15:39.161Z,46.40
2019-03-30T19:18:08.902Z,46.47
2019-03-30T19:20:38.964Z,46.65
2019-03-30T19:23:08.738Z,46.99
2019-03-30T19:25:38.531Z,47.44
2019-03-30T19:28:08.248Z,48.03
2019-03-30T19:30:38.061Z,48.42
2019-03-30T19:33:07.866Z,48.94
2019-03-30T19:35:37.566Z,49.12
2019-03-30T19:38:10.727Z,49.58
2019-03-30T19:40:38.849Z,49.93
2019-03-30T19:43:08.547Z,50.17
2019-03-30T19:45:38.257Z,50.57
2019-03-30T19:48:07.985Z,50.95
2019-03-30T19:50:37.742Z,51.19
2019-03-30T19:53:07.429Z,51.42
2019-03-30T19:55:37.111Z,51.67
2019-03-30T19:58:06.808Z,51.81
2019-03-30T20:00:38.741Z,52.06
2019-03-30T20:03:08.490Z,52.34
2019-03-30T20:05:38.171Z,52.47
2019-03-30T20:08:12.306Z,52.71
2019-03-30T20:10:39.440Z,52.84
2019-03-30T20:13:09.417Z,53.17
2019-03-30T20:15:39.095Z,53.23
2019-03-30T20:18:08.776Z,53.15
2019-03-30T20:20:38.458Z,53.49
2019-03-30T20:23:08.212Z,53.63
2019-03-30T20:25:38.070Z,53.80
2019-03-30T20:28:07.759Z,53.91
2019-03-30T20:30:37.452Z,54.06
2019-03-30T20:33:07.324Z,54.19
2019-03-30T20:35:37.067Z,54.32
2019-03-30T20:38:06.800Z,54.44
2019-03-30T20:40:36.560Z,54.46
2019-03-30T20:43:06.661Z,54.50
2019-03-30T20:45:36.345Z,54.51
2019-03-30T20:48:06.198Z,54.73
2019-03-30T20:50:35.971Z,54.91
2019-03-30T20:53:05.675Z,55.15
2019-03-30T20:55:35.341Z,55.28
2019-03-30T20:58:05.233Z,55.30
2019-03-30T21:00:34.952Z,55.40
2019-03-30T21:03:04.694Z,55.61
2019-03-30T21:05:34.395Z,56.03
2019-03-30T21:08:04.208Z,56.04
2019-03-30T21:10:34.050Z,56.52
2019-03-30T21:13:03.780Z,56.85
2019-03-30T21:15:33.460Z,56.81
2019-03-30T21:18:03.220Z,57.00
2019-03-30T21:20:33.032Z,56.80
2019-03-30T21:23:02.787Z,56.88
2019-03-30T21:25:32.700Z,56.84
2019-03-30T21:28:02.398Z,57.02
2019-03-30T21:30:32.230Z,57.23
2019-03-30T21:33:01.948Z,57.01
2019-03-30T21:35:31.708Z,57.12
2019-03-30T21:38:01.430Z,57.50
2019-03-30T21:40:31.130Z,57.67
2019-03-30T21:43:00.854Z,57.69
2019-03-30T21:45:30.590Z,57.64
2019-03-30T21:48:00.327Z,57.58
2019-03-30T21:50:30.046Z,57.59
2019-03-30T21:52:59.844Z,57.68
2019-03-30T21:55:29.546Z,57.67
2019-03-30T21:57:59.263Z,57.85
2019-03-30T22:00:36.703Z,58.08
2019-03-30T22:03:07.012Z,58.28
2019-03-30T22:05:36.885Z,58.46
2019-03-30T22:08:06.873Z,58.66
2019-03-30T22:10:36.586Z,58.78
2019-03-30T22:13:07.090Z,59.06
2019-03-30T22:15:36.825Z,59.14
2019-03-30T22:18:06.571Z,59.13
2019-03-30T22:20:36.307Z,59.09
2019-03-30T22:23:05.966Z,59.00
2019-03-30T22:25:35.666Z,59.13
2019-03-30T22:28:05.416Z,59.13
2019-03-30T22:30:35.091Z,59.21
2019-03-30T22:33:04.821Z,59.42
2019-03-30T22:35:34.534Z,59.51
2019-03-30T22:38:04.245Z,59.63
2019-03-30T22:40:33.912Z,59.62
2019-03-30T22:43:03.640Z,59.74
2019-03-30T22:45:33.306Z,59.74
2019-03-30T22:48:02.968Z,59.93
2019-03-30T22:50:32.654Z,59.98
2019-03-30T22:53:02.598Z,60.06
2019-03-30T22:55:32.290Z,60.02
2019-03-30T22:58:01.981Z,60.03
2019-03-30T23:00:53.676Z,60.02
2019-03-30T23:03:23.414Z,60.05
2019-03-30T23:05:53.165Z,60.38
2019-03-30T23:08:22.883Z,60.66
2019-03-30T23:10:52.553Z,60.62
2019-03-30T23:13:22.405Z,60.79
2019-03-30T23:15:52.236Z,60.78
2019-03-30T23:18:21.909Z,60.63
2019-03-30T23:20:51.619Z,60.72
2019-03-30T23:23:21.312Z,60.73
2019-03-30T23:25:51.017Z,60.82
2019-03-30T23:28:20.699Z,60.87
2019-03-30T23:30:54.575Z,61.11
2019-03-30T23:33:21.932Z,61.25
2019-03-30T23:35:51.788Z,61.32
2019-03-30T23:38:21.540Z,61.39
2019-03-30T23:40:51.216Z,61.44
2019-03-30T23:43:20.934Z,61.62
2019-03-30T23:45:50.636Z,61.72
2019-03-30T23:48:20.362Z,61.83
2019-03-30T23:50:50.050Z,61.93
2019-03-30T23:53:20.095Z,62.12
2019-03-30T23:55:49.883Z,62.21
2019-03-30T23:58:19.663Z,62.22
